createdAt,value
2024-04-15T00:00:02.300Z,13
2024-04-15T00:01:02.693Z,12.9
2024-04-15T00:02:02.454Z,12.9
2024-04-15T00:03:02.231Z,12.9
2024-04-15T00:04:02.558Z,12.9
2024-04-15T00:05:02.402Z,12.8
2024-04-15T00:06:02.443Z,12.8
2024-04-15T00:07:02.816Z,12.8
2024-04-15T00:08:02.617Z,12.8
2024-04-15T00:09:02.696Z,12.8
2024-04-15T00:10:02.344Z,12.8
2024-04-15T00:11:02.761Z,12.8
2024-04-15T00:12:02.606Z,12.8
2024-04-15T00:13:03.010Z,12.8
2024-04-15T00:14:02.303Z,12.8
2024-04-15T00:15:02.541Z,12.7
2024-04-15T00:16:02.487Z,12.7
2024-04-15T00:17:02.607Z,12.6
2024-04-15T00:18:02.635Z,12.6
2024-04-15T00:19:02.591Z,12.6
2024-04-15T00:20:02.941Z,12.6
2024-04-15T00:21:02.472Z,12.6
2024-04-15T00:22:02.692Z,12.6
2024-04-15T00:23:02.702Z,12.5
2024-04-15T00:24:02.784Z,12.5
2024-04-15T00:25:02.339Z,12.5
2024-04-15T00:26:02.384Z,12.5
2024-04-15T00:27:02.680Z,12.5
2024-04-15T00:28:02.127Z,12.4
2024-04-15T00:29:02.822Z,12.4
2024-04-15T00:30:02.437Z,12.4
2024-04-15T00:31:02.027Z,12.4
2024-04-15T00:34:02.849Z,12.4
2024-04-15T00:35:02.489Z,12.4
2024-04-15T00:36:02.714Z,12.4
2024-04-15T00:37:02.532Z,12.3
2024-04-15T00:38:02.262Z,12.4
2024-04-15T00:39:02.719Z,12.4
2024-04-15T00:40:02.837Z,12.4
2024-04-15T00:41:02.989Z,12.4
2024-04-15T00:42:02.752Z,12.3
2024-04-15T00:43:02.300Z,12.3
2024-04-15T00:44:02.830Z,12.3
2024-04-15T00:45:02.129Z,12.3
2024-04-15T00:46:02.240Z,12.3
2024-04-15T00:47:02.508Z,12.3
2024-04-15T00:48:03.072Z,12.3
2024-04-15T00:49:02.662Z,12.3
2024-04-15T00:50:02.187Z,12.3
2024-04-15T00:51:02.777Z,12.3
2024-04-15T00:54:03.046Z,12.3
2024-04-15T00:55:02.546Z,12.3
2024-04-15T00:56:02.949Z,12.3
2024-04-15T00:57:01.921Z,12.3
2024-04-15T00:58:02.939Z,12.3
2024-04-15T00:59:02.629Z,12.3
2024-04-15T01:00:02.577Z,12.3
2024-04-15T01:01:02.021Z,12.3
2024-04-15T01:02:02.547Z,12.3
2024-04-15T01:03:02.745Z,12.3
2024-04-15T01:04:02.959Z,12.3
2024-04-15T01:05:02.265Z,12.3
2024-04-15T01:06:02.928Z,12.3
2024-04-15T01:07:02.984Z,12.3
2024-04-15T01:08:02.776Z,12.2
2024-04-15T01:09:02.142Z,12.2
2024-04-15T01:10:02.447Z,12.3
2024-04-15T01:11:02.269Z,12.3
2024-04-15T01:12:02.094Z,12.2
2024-04-15T01:13:02.151Z,12.2
2024-04-15T01:14:02.312Z,12.2
2024-04-15T01:15:02.150Z,12.2
2024-04-15T01:16:02.827Z,12.1
2024-04-15T01:17:02.300Z,12.1
2024-04-15T01:18:03.097Z,12.1
2024-04-15T01:19:02.940Z,12.1
2024-04-15T01:20:01.725Z,12.1
2024-04-15T01:23:02.901Z,12.1
2024-04-15T01:24:02.515Z,12.1
2024-04-15T01:25:02.054Z,12.1
2024-04-15T01:26:02.347Z,12.1
2024-04-15T01:27:02.417Z,12.1
2024-04-15T01:28:03.197Z,12.1
2024-04-15T01:29:02.731Z,12.2
2024-04-15T01:30:02.274Z,12.2
2024-04-15T01:31:02.285Z,12.3
2024-04-15T01:32:02.160Z,12.3
2024-04-15T01:33:02.789Z,12.3
2024-04-15T01:34:02.761Z,12.3
2024-04-15T01:35:02.582Z,12.3
2024-04-15T01:36:01.823Z,12.4
2024-04-15T01:37:01.910Z,12.4
2024-04-15T01:38:02.109Z,12.4
2024-04-15T01:39:02.316Z,12.4
2024-04-15T01:40:02.262Z,12.4
2024-04-15T01:41:02.534Z,12.4
2024-04-15T01:42:02.568Z,12.4
2024-04-15T01:43:02.343Z,12.4
2024-04-15T01:44:02.093Z,12.4
2024-04-15T01:45:01.921Z,12.4
2024-04-15T01:46:01.819Z,12.4
2024-04-15T02:03:02.747Z,12.4
2024-04-15T02:04:01.839Z,12.4
2024-04-15T02:05:01.736Z,12.5
2024-04-15T02:06:02.506Z,12.5
2024-04-15T02:07:03.039Z,12.4
2024-04-15T02:08:02.402Z,12.4
2024-04-15T02:09:02.068Z,12.4
2024-04-15T02:10:02.425Z,12.5
2024-04-15T02:11:02.290Z,12.5
2024-04-15T02:12:02.411Z,12.5
2024-04-15T02:13:02.416Z,12.5
2024-04-15T02:14:02.640Z,12.5
2024-04-15T02:15:02.474Z,12.5
2024-04-15T02:16:02.549Z,12.5
2024-04-15T02:17:02.434Z,12.5
2024-04-15T02:18:02.912Z,12.5
2024-04-15T02:19:02.118Z,12.5
2024-04-15T02:20:01.896Z,12.5
2024-04-15T02:21:02.333Z,12.5
2024-04-15T02:22:02.829Z,12.5
2024-04-15T02:23:03.064Z,12.5
2024-04-15T02:24:02.761Z,12.5
2024-04-15T02:25:02.801Z,12.5
2024-04-15T02:26:02.063Z,12.5
2024-04-15T02:27:02.916Z,12.5
2024-04-15T02:28:02.159Z,12.5
2024-04-15T02:29:02.435Z,12.5
2024-04-15T02:30:02.612Z,12.5
2024-04-15T02:33:02.672Z,12.5
2024-04-15T02:34:02.191Z,12.5
2024-04-15T02:37:02.116Z,12.5
2024-04-15T02:38:02.010Z,12.5
2024-04-15T02:39:02.791Z,12.5
2024-04-15T02:40:02.732Z,12.5
2024-04-15T02:41:03.009Z,12.5
2024-04-15T02:42:02.681Z,12.5
2024-04-15T02:43:03.171Z,12.5
2024-04-15T02:44:02.902Z,12.5
2024-04-15T02:45:02.523Z,12.5
2024-04-15T02:46:02.512Z,12.5
2024-04-15T02:48:02.578Z,12.5
2024-04-15T02:49:02.344Z,12.5
2024-04-15T02:50:02.749Z,12.5
2024-04-15T02:51:02.508Z,12.5
2024-04-15T02:52:02.299Z,12.5
2024-04-15T02:53:02.138Z,12.5
2024-04-15T02:54:03.000Z,12.5
2024-04-15T02:57:02.414Z,12.5
2024-04-15T02:58:02.593Z,12.5
2024-04-15T02:59:02.447Z,12.5
2024-04-15T03:02:02.096Z,12.5
2024-04-15T03:03:02.380Z,12.5
2024-04-15T03:04:03.146Z,12.6
2024-04-15T03:05:02.699Z,12.5
2024-04-15T03:06:02.980Z,12.6
2024-04-15T03:07:02.587Z,12.6
2024-04-15T03:08:02.145Z,12.6
2024-04-15T03:09:02.152Z,12.6
2024-04-15T03:12:02.340Z,12.6
2024-04-15T03:13:02.132Z,12.6
2024-04-15T03:14:02.469Z,12.6
2024-04-15T03:15:03.200Z,12.6
2024-04-15T03:16:09.290Z,12.6
2024-04-15T03:17:02.478Z,12.6
2024-04-15T03:18:03.048Z,12.6
2024-04-15T03:19:02.808Z,12.6
2024-04-15T03:20:01.794Z,12.6
2024-04-15T03:21:02.776Z,12.6
2024-04-15T03:22:02.574Z,12.6
2024-04-15T03:23:02.890Z,12.6
2024-04-15T03:24:02.642Z,12.6
2024-04-15T03:25:02.368Z,12.6
2024-04-15T03:26:02.806Z,12.5
2024-04-15T03:27:02.211Z,12.5
2024-04-15T03:28:02.352Z,12.5
2024-04-15T03:29:02.843Z,12.5
2024-04-15T03:30:02.741Z,12.5
2024-04-15T03:31:01.953Z,12.5
2024-04-15T03:34:02.914Z,12.5
2024-04-15T03:35:02.528Z,12.5
2024-04-15T03:36:02.103Z,12.5
2024-04-15T03:37:02.173Z,12.5
2024-04-15T03:40:02.756Z,12.5
2024-04-15T03:41:02.742Z,12.5
2024-04-15T03:43:02.914Z,12.5
2024-04-15T03:44:02.707Z,12.5
2024-04-15T03:45:02.599Z,12.5
2024-04-15T03:46:01.966Z,12.6
2024-04-15T03:47:02.332Z,12.6
2024-04-15T03:48:02.141Z,12.6
2024-04-15T03:49:02.562Z,12.6
2024-04-15T03:50:02.308Z,12.6
2024-04-15T03:51:02.673Z,12.6
2024-04-15T03:52:01.987Z,12.6
2024-04-15T03:53:02.493Z,12.7
2024-04-15T03:54:02.198Z,12.6
2024-04-15T03:55:02.367Z,12.7
2024-04-15T03:56:02.652Z,12.7
2024-04-15T03:57:02.782Z,12.7
2024-04-15T03:58:02.501Z,12.7
2024-04-15T03:59:02.933Z,12.7
2024-04-15T04:00:02.696Z,12.7
2024-04-15T04:01:02.332Z,12.7
2024-04-15T04:02:02.828Z,12.7
2024-04-15T04:03:02.259Z,12.7
2024-04-15T04:04:02.296Z,12.8
2024-04-15T04:05:02.863Z,12.8
2024-04-15T04:06:10.986Z,12.8
2024-04-15T04:07:02.179Z,12.7
2024-04-15T04:08:02.634Z,12.8
2024-04-15T04:09:02.619Z,12.8
2024-04-15T04:10:03.046Z,12.7
2024-04-15T04:11:02.017Z,12.8
2024-04-15T04:12:02.274Z,12.8
2024-04-15T04:13:02.838Z,12.8
2024-04-15T04:14:02.128Z,12.8
2024-04-15T04:15:03.014Z,12.8
2024-04-15T04:16:02.447Z,12.8
2024-04-15T04:17:03.009Z,12.8
2024-04-15T04:18:01.997Z,12.8
2024-04-15T04:19:02.583Z,12.8
2024-04-15T04:20:02.470Z,12.8
2024-04-15T04:21:02.118Z,12.8
2024-04-15T04:22:02.009Z,12.8
2024-04-15T04:24:03.154Z,12.8
2024-04-15T04:25:02.783Z,12.8
2024-04-15T04:26:02.369Z,12.8
2024-04-15T04:27:02.818Z,12.8
2024-04-15T04:28:02.455Z,12.8
2024-04-15T04:29:01.954Z,12.8
2024-04-15T04:30:02.823Z,12.8
2024-04-15T04:31:02.895Z,12.8
2024-04-15T04:32:02.844Z,12.8
2024-04-15T04:33:02.675Z,12.8
2024-04-15T04:34:02.601Z,12.8
2024-04-15T04:35:02.742Z,12.8
2024-04-15T04:36:02.643Z,12.8
2024-04-15T04:37:02.705Z,12.8
2024-04-15T04:38:02.483Z,12.8
2024-04-15T04:39:02.508Z,12.8
2024-04-15T04:40:02.990Z,12.9
2024-04-15T04:41:02.427Z,12.8
2024-04-15T04:42:02.589Z,12.8
2024-04-15T04:43:03.216Z,12.9
2024-04-15T04:44:02.681Z,12.9
2024-04-15T04:45:02.469Z,12.9
2024-04-15T04:46:01.918Z,12.9
2024-04-15T04:47:03.100Z,12.8
2024-04-15T04:48:02.820Z,12.8
2024-04-15T04:49:02.552Z,12.8
2024-04-15T04:50:01.831Z,12.8
2024-04-15T04:51:02.845Z,12.9
2024-04-15T04:52:02.568Z,12.9
2024-04-15T04:53:02.111Z,12.9
2024-04-15T04:54:02.504Z,12.9
2024-04-15T04:55:01.443Z,12.9
2024-04-15T04:57:02.168Z,12.9
2024-04-15T04:58:02.111Z,12.9
2024-04-15T04:59:02.464Z,13
2024-04-15T05:01:02.682Z,13
2024-04-15T05:02:04.000Z,13
2024-04-15T05:03:02.872Z,13
2024-04-15T05:04:02.443Z,13
2024-04-15T05:05:02.310Z,13
2024-04-15T05:06:02.654Z,13
2024-04-15T05:07:01.964Z,13
2024-04-15T05:08:02.209Z,13
2024-04-15T05:09:02.289Z,13
2024-04-15T05:10:02.684Z,13
2024-04-15T05:11:02.358Z,13
2024-04-15T05:12:02.049Z,13
2024-04-15T05:13:02.850Z,13
2024-04-15T05:14:02.518Z,12.9
2024-04-15T05:15:02.175Z,12.9
2024-04-15T05:16:02.530Z,12.8
2024-04-15T05:17:02.981Z,12.8
2024-04-15T05:18:02.904Z,12.8
2024-04-15T05:19:02.275Z,12.8
2024-04-15T05:20:03.075Z,12.8
2024-04-15T05:21:02.880Z,12.8
2024-04-15T05:22:02.912Z,12.8
2024-04-15T05:23:02.908Z,12.8
2024-04-15T05:24:01.916Z,12.8
2024-04-15T05:25:01.981Z,12.8
2024-04-15T05:26:02.748Z,12.8
2024-04-15T05:27:02.256Z,12.8
2024-04-15T05:28:02.145Z,12.8
2024-04-15T05:30:02.517Z,12.8
2024-04-15T05:31:02.330Z,12.8
2024-04-15T05:32:02.170Z,12.8
2024-04-15T05:34:03.120Z,12.8
2024-04-15T05:35:02.929Z,12.8
2024-04-15T05:36:02.358Z,12.8
2024-04-15T05:37:02.682Z,12.8
2024-04-15T05:38:02.466Z,12.9
2024-04-15T05:39:02.614Z,12.9
2024-04-15T05:40:02.554Z,12.9
2024-04-15T05:41:02.713Z,12.9
2024-04-15T05:42:02.149Z,12.9
2024-04-15T05:43:02.059Z,12.9
2024-04-15T05:44:01.900Z,13
2024-04-15T05:45:02.606Z,13
2024-04-15T05:46:05.220Z,12.9
2024-04-15T05:47:02.242Z,13
2024-04-15T05:48:03.082Z,12.9
2024-04-15T05:49:02.474Z,12.9
2024-04-15T05:50:02.397Z,12.9
2024-04-15T05:51:02.094Z,12.9
2024-04-15T05:52:02.103Z,12.9
2024-04-15T05:53:03.001Z,12.9
2024-04-15T05:54:02.109Z,12.9
2024-04-15T05:55:02.299Z,12.9
2024-04-15T05:56:02.668Z,12.9
2024-04-15T05:57:02.246Z,12.9
2024-04-15T05:58:02.818Z,12.9
2024-04-15T05:59:01.804Z,13
2024-04-15T06:00:02.316Z,13
2024-04-15T06:01:02.260Z,13
2024-04-15T06:02:03.112Z,13
2024-04-15T06:03:02.129Z,13.1
2024-04-15T06:04:02.016Z,13.1
2024-04-15T06:05:02.576Z,13
2024-04-15T06:06:02.695Z,13
2024-04-15T06:07:02.325Z,13
2024-04-15T06:08:02.934Z,13.1
2024-04-15T06:09:02.452Z,13.1
2024-04-15T06:10:02.632Z,13.1
2024-04-15T06:11:02.620Z,13.1
2024-04-15T06:12:02.728Z,13.1
2024-04-15T06:13:02.445Z,13.1
2024-04-15T06:14:02.109Z,13.2
2024-04-15T06:15:02.952Z,13.2
2024-04-15T06:16:03.036Z,13.2
2024-04-15T06:17:02.858Z,13.2
2024-04-15T06:18:02.965Z,13.2
2024-04-15T06:19:02.065Z,13.3
2024-04-15T06:20:01.843Z,13.3
2024-04-15T06:21:02.167Z,13.3
2024-04-15T06:22:02.046Z,13.3
2024-04-15T06:23:02.135Z,13.3
2024-04-15T06:24:02.472Z,13.3
2024-04-15T06:25:02.961Z,13.4
2024-04-15T06:26:01.942Z,13.4
2024-04-15T06:27:02.465Z,13.5
2024-04-15T06:28:02.353Z,13.5
2024-04-15T06:29:02.288Z,13.6
2024-04-15T06:30:02.291Z,13.6
2024-04-15T06:31:03.096Z,13.6
2024-04-15T06:32:02.566Z,13.6
2024-04-15T06:33:02.211Z,13.6
2024-04-15T06:34:02.084Z,13.6
2024-04-15T06:36:02.590Z,13.6
2024-04-15T06:38:02.562Z,13.6
2024-04-15T06:39:02.150Z,13.6
2024-04-15T06:40:03.269Z,13.6
2024-04-15T06:41:02.800Z,13.6
2024-04-15T06:42:02.634Z,13.6
2024-04-15T06:43:03.881Z,13.6
2024-04-15T06:44:02.585Z,13.6
2024-04-15T06:45:02.848Z,13.6
2024-04-15T06:46:03.086Z,13.6
2024-04-15T06:47:02.151Z,13.6
2024-04-15T06:48:02.842Z,13.6
2024-04-15T06:49:02.418Z,13.6
2024-04-15T06:50:02.943Z,13.7
2024-04-15T06:52:02.762Z,13.6
2024-04-15T06:53:02.272Z,13.6
2024-04-15T06:54:02.958Z,13.6
2024-04-15T06:55:02.338Z,13.6
2024-04-15T06:56:03.036Z,13.6
2024-04-15T06:57:02.619Z,13.6
2024-04-15T06:58:02.324Z,13.6
2024-04-15T06:59:02.124Z,13.6
2024-04-15T07:00:02.215Z,13.6
2024-04-15T07:01:02.310Z,13.6
2024-04-15T07:02:02.568Z,13.6
2024-04-15T07:03:02.462Z,13.7
2024-04-15T07:04:02.767Z,13.7
2024-04-15T07:05:02.183Z,13.7
2024-04-15T07:06:02.141Z,13.7
2024-04-15T07:07:02.227Z,13.7
2024-04-15T07:08:02.707Z,13.8
2024-04-15T07:09:02.070Z,13.8
2024-04-15T07:10:02.968Z,13.8
2024-04-15T07:11:02.617Z,13.8
2024-04-15T07:12:02.027Z,13.8
2024-04-15T07:13:03.168Z,13.8
2024-04-15T07:14:02.432Z,13.8
2024-04-15T07:15:02.325Z,13.8
2024-04-15T07:16:02.094Z,13.8
2024-04-15T07:17:02.567Z,13.8
2024-04-15T07:18:01.982Z,13.8
2024-04-15T07:19:02.181Z,13.8
2024-04-15T07:20:02.880Z,13.8
2024-04-15T07:21:02.277Z,13.8
2024-04-15T07:22:02.842Z,13.8
2024-04-15T07:23:03.079Z,13.8
2024-04-15T07:24:02.949Z,13.8
2024-04-15T07:25:03.172Z,13.8
2024-04-15T07:26:02.145Z,13.8
2024-04-15T07:33:03.017Z,13.9
2024-04-15T07:34:03.087Z,13.9
2024-04-15T07:35:03.032Z,14
2024-04-15T07:36:02.099Z,14
2024-04-15T07:37:02.781Z,14
2024-04-15T07:38:02.304Z,14
2024-04-15T07:39:02.399Z,14
2024-04-15T07:40:03.531Z,14
2024-04-15T07:41:02.515Z,14.1
2024-04-15T07:42:02.433Z,14.1
2024-04-15T07:43:03.075Z,14.1
2024-04-15T07:44:02.667Z,14.1
2024-04-15T07:45:02.269Z,14.1
2024-04-15T07:46:02.471Z,14.2
2024-04-15T07:47:02.354Z,14.1
2024-04-15T07:48:02.732Z,14.1
2024-04-15T07:49:02.942Z,14.2
2024-04-15T07:50:02.574Z,14.1
2024-04-15T07:51:02.283Z,14.1
2024-04-15T07:52:02.760Z,14.1
2024-04-15T07:53:02.807Z,14.1
2024-04-15T07:54:01.914Z,14.1
2024-04-15T07:55:02.663Z,14.1
2024-04-15T07:56:02.115Z,14.1
2024-04-15T07:57:02.541Z,14.1
2024-04-15T07:58:02.278Z,14.1
2024-04-15T07:59:02.138Z,14.1
2024-04-15T08:00:03.352Z,14
2024-04-15T08:01:01.888Z,14
2024-04-15T08:02:02.773Z,14
2024-04-15T08:03:02.600Z,14.1
2024-04-15T08:06:02.842Z,14
2024-04-15T08:07:09.174Z,14
2024-04-15T08:08:02.904Z,14
2024-04-15T08:09:02.188Z,14
2024-04-15T08:12:02.751Z,14
2024-04-15T08:13:01.978Z,14
2024-04-15T08:14:02.908Z,14
2024-04-15T08:15:02.156Z,14
2024-04-15T08:16:02.514Z,14
2024-04-15T08:17:02.299Z,14
2024-04-15T08:18:03.057Z,13.9
2024-04-15T08:19:02.491Z,13.9
2024-04-15T08:20:03.018Z,13.9
2024-04-15T08:21:02.297Z,13.9
2024-04-15T08:22:02.352Z,13.9
2024-04-15T08:23:03.013Z,14
2024-04-15T08:24:02.152Z,14
2024-04-15T08:25:02.541Z,14
2024-04-15T08:26:02.525Z,13.9
2024-04-15T08:27:02.633Z,14
2024-04-15T08:28:02.817Z,13.9
2024-04-15T08:29:02.371Z,14
2024-04-15T08:30:02.106Z,14
2024-04-15T08:31:02.825Z,14
2024-04-15T08:32:02.999Z,14
2024-04-15T08:33:02.485Z,14.1
2024-04-15T08:34:02.920Z,14.1
2024-04-15T08:35:02.747Z,14.2
2024-04-15T08:36:02.631Z,14.2
2024-04-15T08:37:02.866Z,14.2
2024-04-15T08:38:03.201Z,14.2
2024-04-15T08:39:02.872Z,14.2
2024-04-15T08:40:03.048Z,14.2
2024-04-15T08:43:02.286Z,14.1
2024-04-15T08:44:02.410Z,14.1
2024-04-15T08:45:02.347Z,14.1
2024-04-15T08:46:02.707Z,14.2
2024-04-15T08:47:02.127Z,14.2
2024-04-15T08:48:02.876Z,14.2
2024-04-15T08:49:02.647Z,14.2
2024-04-15T08:50:02.389Z,14.2
2024-04-15T08:51:01.934Z,14.2
2024-04-15T08:52:03.160Z,14.2
2024-04-15T08:53:01.787Z,14.2
2024-04-15T08:54:02.458Z,14.2
2024-04-15T08:55:02.832Z,14.2
2024-04-15T08:56:02.590Z,14.2
2024-04-15T08:57:02.237Z,14.2
2024-04-15T08:58:01.987Z,14.2
2024-04-15T08:59:04.915Z,14.2
2024-04-15T09:00:01.902Z,14.3
2024-04-15T09:01:02.525Z,14.2
2024-04-15T09:02:02.505Z,14.2
2024-04-15T09:03:01.937Z,14.2
2024-04-15T09:04:03.147Z,14.2
2024-04-15T09:05:02.183Z,14.2
2024-04-15T09:06:02.814Z,14.2
2024-04-15T09:07:02.548Z,14.2
2024-04-15T09:08:02.168Z,14.2
2024-04-15T09:09:02.249Z,14.2
2024-04-15T09:10:02.795Z,14.2
2024-04-15T09:11:02.777Z,14.2
2024-04-15T09:12:02.732Z,14.2
2024-04-15T09:13:03.082Z,14.2
2024-04-15T09:14:02.418Z,14.2
2024-04-15T09:15:02.358Z,14.2
2024-04-15T09:16:02.098Z,14.2
2024-04-15T09:17:02.851Z,14.2
2024-04-15T09:18:02.619Z,14.2
2024-04-15T09:19:02.826Z,14.2
2024-04-15T09:20:02.736Z,14.2
2024-04-15T09:21:04.887Z,14.2
2024-04-15T09:22:02.846Z,14.2
2024-04-15T09:23:02.653Z,14.2
2024-04-15T09:24:03.057Z,14.2
2024-04-15T09:25:02.819Z,14.2
2024-04-15T09:26:01.861Z,14.1
2024-04-15T09:27:02.066Z,14.1
2024-04-15T09:28:02.482Z,14.1
2024-04-15T09:29:02.421Z,14.1
2024-04-15T09:30:03.350Z,14.1
2024-04-15T09:31:02.662Z,14.1
2024-04-15T09:32:02.032Z,14
2024-04-15T09:33:02.629Z,14
2024-04-15T09:34:02.524Z,14
2024-04-15T09:35:01.921Z,14
2024-04-15T09:36:02.813Z,14
2024-04-15T09:37:02.330Z,14
2024-04-15T09:38:02.964Z,14
2024-04-15T09:39:02.133Z,14
2024-04-15T09:40:02.685Z,14
2024-04-15T09:41:02.298Z,14
2024-04-15T09:42:02.383Z,14
2024-04-15T09:43:02.306Z,14
2024-04-15T09:44:02.476Z,14
2024-04-15T09:45:02.207Z,14
2024-04-15T09:46:02.475Z,13.9
2024-04-15T09:47:02.597Z,13.9
2024-04-15T09:48:02.181Z,14
2024-04-15T09:49:02.785Z,14
2024-04-15T09:50:02.695Z,14
2024-04-15T09:51:02.741Z,14
2024-04-15T09:52:02.339Z,13.9
2024-04-15T09:53:02.236Z,13.9
2024-04-15T09:54:02.647Z,13.9
2024-04-15T09:55:02.883Z,13.9
2024-04-15T10:03:02.509Z,13.7
2024-04-15T10:05:02.723Z,13.7
2024-04-15T10:06:02.444Z,13.7
2024-04-15T10:07:01.996Z,13.7
2024-04-15T10:08:02.351Z,13.7
2024-04-15T10:14:02.732Z,13.6
2024-04-15T10:15:02.601Z,13.6
2024-04-15T10:16:02.747Z,13.5
2024-04-15T10:17:02.712Z,13.6
2024-04-15T10:18:02.736Z,13.5
2024-04-15T10:19:02.440Z,13.6
2024-04-15T10:20:01.833Z,13.5
2024-04-15T10:21:02.291Z,13.5
2024-04-15T10:22:03.134Z,13.5
2024-04-15T10:23:04.917Z,13.5
2024-04-15T10:24:02.298Z,13.5
2024-04-15T10:25:02.971Z,13.5
2024-04-15T10:26:02.429Z,13.4
2024-04-15T10:27:02.646Z,13.4
2024-04-15T10:28:02.764Z,13.4
2024-04-15T10:29:02.643Z,13.4
2024-04-15T10:30:02.796Z,13.4
2024-04-15T10:31:02.505Z,13.4
2024-04-15T10:32:01.892Z,13.4
2024-04-15T10:34:02.093Z,13.4
2024-04-15T10:36:02.628Z,13.4
2024-04-15T10:37:02.221Z,13.4
2024-04-15T10:38:02.673Z,13.4
2024-04-15T10:39:02.653Z,13.4
2024-04-15T10:40:01.910Z,13.5
2024-04-15T10:41:02.641Z,13.5
2024-04-15T10:42:02.950Z,13.5
2024-04-15T10:43:01.923Z,13.5
2024-04-15T10:44:02.660Z,13.5
2024-04-15T10:45:02.954Z,13.5
2024-04-15T10:46:02.491Z,13.5
2024-04-15T10:47:02.921Z,13.5
2024-04-15T10:48:02.532Z,13.6
2024-04-15T10:49:02.418Z,13.6
2024-04-15T10:50:02.364Z,13.5
2024-04-15T10:51:02.124Z,13.5
2024-04-15T10:52:02.959Z,13.5
2024-04-15T10:53:02.919Z,13.5
2024-04-15T10:54:02.420Z,13.5
2024-04-15T10:55:02.658Z,13.5
2024-04-15T10:56:02.416Z,13.5
2024-04-15T10:57:02.588Z,13.5
2024-04-15T10:58:02.156Z,13.5
2024-04-15T10:59:02.013Z,13.5
2024-04-15T11:00:02.954Z,13.5
2024-04-15T11:01:02.953Z,13.5
2024-04-15T11:02:01.603Z,13.5
2024-04-15T11:03:02.870Z,13.5
2024-04-15T11:04:02.111Z,13.4
2024-04-15T11:05:02.366Z,13.4
2024-04-15T11:06:02.965Z,13.5
2024-04-15T11:07:02.604Z,13.5
2024-04-15T11:08:02.034Z,13.4
2024-04-15T11:09:02.603Z,13.4
2024-04-15T11:10:03.105Z,13.4
2024-04-15T11:11:02.269Z,13.4
2024-04-15T11:12:02.943Z,13.4
2024-04-15T11:13:02.111Z,13.4
2024-04-15T11:14:02.359Z,13.4
2024-04-15T11:15:02.709Z,13.4
2024-04-15T11:16:02.600Z,13.4
2024-04-15T11:17:02.299Z,13.3
2024-04-15T11:18:02.659Z,13.3
2024-04-15T11:19:02.716Z,13.3
2024-04-15T11:21:02.124Z,13.3
2024-04-15T11:22:02.804Z,13.3
2024-04-15T11:23:02.870Z,13.3
2024-04-15T11:24:02.431Z,13.3
2024-04-15T11:25:02.218Z,13.4
2024-04-15T11:26:01.711Z,13.4
2024-04-15T11:27:02.686Z,13.4
2024-04-15T11:28:02.348Z,13.4
2024-04-15T11:29:02.662Z,13.4
2024-04-15T11:30:04.884Z,13.4
2024-04-15T11:31:02.326Z,13.4
2024-04-15T11:32:02.657Z,13.4
2024-04-15T11:33:02.317Z,13.5
2024-04-15T11:34:01.976Z,13.5
2024-04-15T11:35:02.885Z,13.4
2024-04-15T11:36:02.538Z,13.4
2024-04-15T11:37:02.074Z,13.5
2024-04-15T11:38:02.048Z,13.6
2024-04-15T11:39:02.756Z,13.6
2024-04-15T11:40:02.944Z,13.6
2024-04-15T11:41:02.126Z,13.7
2024-04-15T11:42:02.962Z,13.7
2024-04-15T11:43:02.586Z,13.8
2024-04-15T11:44:02.296Z,13.8
2024-04-15T11:45:01.773Z,13.8
2024-04-15T11:46:02.337Z,13.8
2024-04-15T11:47:02.157Z,13.9
2024-04-15T11:48:02.758Z,13.9
2024-04-15T11:49:02.386Z,14
2024-04-15T11:50:03.181Z,14
2024-04-15T11:54:02.945Z,14.2
2024-04-15T11:55:02.393Z,14.2
2024-04-15T11:56:02.528Z,14.2
2024-04-15T11:57:02.483Z,14.2
2024-04-15T11:58:02.008Z,14.2
2024-04-15T11:59:02.720Z,14.2
2024-04-15T12:00:02.188Z,14.2
2024-04-15T12:01:02.129Z,14.2
2024-04-15T12:02:03.026Z,14.2
2024-04-15T12:03:02.250Z,14.2
2024-04-15T12:04:02.808Z,14.3
2024-04-15T12:05:02.508Z,14.3
2024-04-15T12:06:03.006Z,14.2
2024-04-15T12:07:02.480Z,14.2
2024-04-15T12:08:02.589Z,14.2
2024-04-15T12:09:02.913Z,14.2
2024-04-15T12:10:02.835Z,14.3
2024-04-15T12:11:02.148Z,14.3
2024-04-15T12:12:02.077Z,14.3
2024-04-15T12:13:02.713Z,14.3
2024-04-15T12:14:02.633Z,14.3
2024-04-15T12:15:04.748Z,14.3
2024-04-15T12:16:03.124Z,14.3
2024-04-15T12:17:02.994Z,14.3
2024-04-15T12:18:02.459Z,14.3
2024-04-15T12:19:02.071Z,14.3
2024-04-15T12:20:03.109Z,14.2
2024-04-15T12:21:02.721Z,14.2
2024-04-15T12:22:02.315Z,14.3
2024-04-15T12:23:02.752Z,14.3
2024-04-15T12:24:02.477Z,14.3
2024-04-15T12:25:08.119Z,14.3
2024-04-15T12:26:02.794Z,14.2
2024-04-15T12:27:02.019Z,14.3
2024-04-15T12:28:01.943Z,14.2
2024-04-15T12:29:02.552Z,14.2
2024-04-15T12:30:02.250Z,14.2
2024-04-15T12:31:02.620Z,14.2
2024-04-15T12:32:02.771Z,14.3
2024-04-15T12:33:02.332Z,14.3
2024-04-15T12:34:02.645Z,14.4
2024-04-15T12:37:02.923Z,14.6
2024-04-15T12:38:02.444Z,14.6
2024-04-15T12:39:01.705Z,14.7
2024-04-15T12:40:02.639Z,14.7
2024-04-15T12:41:02.841Z,14.8
2024-04-15T12:42:02.626Z,14.8
2024-04-15T12:43:02.139Z,14.9
2024-04-15T12:44:05.330Z,14.9
2024-04-15T12:47:02.113Z,14.9
2024-04-15T12:48:02.799Z,14.9
2024-04-15T12:49:02.294Z,15
2024-04-15T12:50:02.919Z,15.1
2024-04-15T12:51:02.240Z,15.2
2024-04-15T12:52:02.920Z,15.2
2024-04-15T12:53:02.556Z,15.2
2024-04-15T12:54:02.818Z,15.3
2024-04-15T12:55:03.109Z,15.4
2024-04-15T12:56:02.599Z,15.4
2024-04-15T12:57:02.087Z,15.3
2024-04-15T12:58:02.615Z,15.3
2024-04-15T12:59:02.292Z,15.3
2024-04-15T13:00:02.928Z,15.4
2024-04-15T13:01:04.870Z,15.4
2024-04-15T13:02:09.007Z,15.4
2024-04-15T13:03:02.715Z,15.2
2024-04-15T13:04:02.429Z,15.2
2024-04-15T13:05:02.484Z,15.2
2024-04-15T13:06:02.281Z,15.2
2024-04-15T13:07:02.400Z,15.2
2024-04-15T13:08:03.318Z,15.1
2024-04-15T13:09:02.491Z,15.1
2024-04-15T13:10:02.698Z,15.1
2024-04-15T13:11:05.032Z,15.1
2024-04-15T13:12:02.083Z,15.1
2024-04-15T13:13:02.475Z,15.1
2024-04-15T13:14:02.416Z,15
2024-04-15T13:15:02.828Z,15
2024-04-15T13:16:04.535Z,14.9
2024-04-15T13:17:02.755Z,14.9
2024-04-15T13:18:03.182Z,14.9
2024-04-15T13:19:02.620Z,14.9
2024-04-15T13:20:02.958Z,14.9
2024-04-15T13:21:02.244Z,14.9
2024-04-15T13:22:04.886Z,14.8
2024-04-15T13:23:02.161Z,14.9
2024-04-15T13:24:02.933Z,14.9
2024-04-15T13:26:02.156Z,14.8
2024-04-15T13:27:02.270Z,14.8
2024-04-15T13:28:02.591Z,14.7
2024-04-15T13:29:02.581Z,14.7
2024-04-15T13:30:02.689Z,14.7
2024-04-15T13:31:02.067Z,14.7
2024-04-15T13:32:12.666Z,14.7
2024-04-15T13:33:02.737Z,14.6
2024-04-15T13:34:02.123Z,14.6
2024-04-15T13:35:02.278Z,14.6
2024-04-15T13:36:02.725Z,14.6
2024-04-15T13:37:02.063Z,14.5
2024-04-15T13:38:02.754Z,14.5
2024-04-15T13:39:02.340Z,14.5
2024-04-15T13:40:02.430Z,14.5
2024-04-15T13:41:02.816Z,14.5
2024-04-15T13:42:02.725Z,14.5
2024-04-15T13:43:02.579Z,14.4
2024-04-15T13:44:02.782Z,14.4
2024-04-15T13:45:02.383Z,14.4
2024-04-15T13:46:04.880Z,14.4
2024-04-15T13:47:03.088Z,14.4
2024-04-15T13:48:02.819Z,14.4
2024-04-15T13:49:02.091Z,14.4
2024-04-15T13:50:02.344Z,14.4
2024-04-15T13:51:02.649Z,14.4
2024-04-15T13:52:03.014Z,14.4
2024-04-15T13:53:02.028Z,14.4
2024-04-15T13:54:02.888Z,14.4
2024-04-15T13:55:02.430Z,14.4
2024-04-15T13:56:02.358Z,14.4
2024-04-15T13:57:04.937Z,14.4
2024-04-15T13:58:02.288Z,14.4
2024-04-15T13:59:02.462Z,14.4
2024-04-15T14:00:03.032Z,14.5
2024-04-15T14:01:02.132Z,14.5
2024-04-15T14:02:03.119Z,14.5
2024-04-15T14:03:02.253Z,14.5
2024-04-15T14:04:02.695Z,14.4
2024-04-15T14:05:02.355Z,14.4
2024-04-15T14:06:03.063Z,14.4
2024-04-15T14:07:02.136Z,14.4
2024-04-15T14:08:02.376Z,14.4
2024-04-15T14:09:02.449Z,14.4
2024-04-15T14:10:02.207Z,14.3
2024-04-15T14:11:02.531Z,14.3
2024-04-15T14:12:03.594Z,14.3
2024-04-15T14:13:02.955Z,14.2
2024-04-15T14:14:02.756Z,14.2
2024-04-15T14:15:03.090Z,14.2
2024-04-15T14:16:02.808Z,14.2
2024-04-15T14:18:02.814Z,14.2
2024-04-15T14:19:02.861Z,14.2
2024-04-15T14:20:02.270Z,14.2
2024-04-15T14:21:02.787Z,14.3
2024-04-15T14:22:02.807Z,14.3
2024-04-15T14:23:02.913Z,14.2
2024-04-15T14:24:02.579Z,14.2
2024-04-15T14:27:02.630Z,14.3
2024-04-15T14:28:01.997Z,14.3
2024-04-15T14:29:02.749Z,14.2
2024-04-15T14:30:02.495Z,14.2
2024-04-15T14:31:02.199Z,14.1
2024-04-15T14:32:02.011Z,14.2
2024-04-15T14:33:02.401Z,14.1
2024-04-15T14:34:02.651Z,14.1
2024-04-15T14:35:03.314Z,14
2024-04-15T14:37:02.670Z,14.1
2024-04-15T14:38:02.376Z,14.1
2024-04-15T14:39:02.804Z,14.1
2024-04-15T14:40:12.270Z,14.2
2024-04-15T14:41:02.626Z,14.2
2024-04-15T14:42:02.028Z,14.1
2024-04-15T14:43:02.592Z,14.1
2024-04-15T14:44:03.663Z,14.2
2024-04-15T14:45:02.408Z,14.2
2024-04-15T14:46:02.568Z,14.1
2024-04-15T14:47:02.565Z,14.2
2024-04-15T14:48:02.731Z,14.2
2024-04-15T14:49:02.591Z,14.2